Time;durP1;ratioP1;P1;durP2;ratioP2;P2;SDS_P1;SDS_P2;PMS_P1;PMS_P2;Temp;Humidity;BMP_temperature;BMP_pressure;BME280_temperature;BME280_humidity;BME280_pressure;Samples;Min_cycle;Max_cycle;Signal;HPM_P1;HPM_P2
2021/12/03 00:03:53;;;;;;;33.00;15.70;;;;;2.20;100679.00;;;;10486107;28;20193;-80
2021/12/03 00:08:55;;;;;;;32.33;15.03;;;;;2.30;100684.00;;;;10473499;28;20619;-80
2021/12/03 00:13:57;;;;;;;26.97;16.07;;;;;2.30;100664.00;;;;10463773;28;20204;-80
2021/12/03 00:18:59;;;;;;;37.07;15.43;;;;;2.20;100660.00;;;;10463647;28;20271;-80
2021/12/03 00:24:01;;;;;;;30.43;15.17;;;;;2.00;100659.00;;;;10521577;28;20201;-80
2021/12/03 00:29:04;;;;;;;37.10;16.30;;;;;1.80;100649.00;;;;10468314;28;20225;-80
2021/12/03 00:34:06;;;;;;;31.73;15.20;;;;;1.70;100637.00;;;;10453927;28;20247;-80
2021/12/03 00:39:08;;;;;;;35.27;16.93;;;;;1.60;100647.00;;;;10486720;28;20626;-80
2021/12/03 00:44:10;;;;;;;27.37;16.20;;;;;1.60;100648.00;;;;10487291;28;20197;-80
2021/12/03 00:49:12;;;;;;;31.30;16.07;;;;;1.60;100663.00;;;;10458623;28;20221;-80
2021/12/03 00:54:15;;;;;;;31.97;15.70;;;;;1.50;100677.00;;;;10475556;28;20197;-80
2021/12/03 00:59:17;;;;;;;28.73;13.93;;;;;1.40;100671.00;;;;10487469;28;20572;-80
2021/12/03 01:04:19;;;;;;;28.07;13.93;;;;;1.30;100666.00;;;;10486314;28;20201;-80
2021/12/03 01:09:21;;;;;;;28.93;14.43;;;;;1.40;100674.00;;;;10486291;28;21081;-80
2021/12/03 01:14:24;;;;;;;33.03;15.33;;;;;1.60;100672.00;;;;10474745;28;20197;-80
2021/12/03 01:19:26;;;;;;;32.67;15.77;;;;;1.60;100671.00;;;;10460281;28;20198;-80
2021/12/03 01:24:28;;;;;;;23.33;13.70;;;;;1.50;100672.00;;;;10495233;28;20212;-80
2021/12/03 01:29:30;;;;;;;28.87;14.77;;;;;1.40;100687.00;;;;10468320;28;20217;-80
2021/12/03 01:34:31;;;;;;;31.80;16.20;;;;;1.30;100688.00;;;;10497625;28;20279;-80
2021/12/03 01:39:34;;;;;;;33.33;17.13;;;;;1.30;100680.00;;;;10479213;28;20201;-80
2021/12/03 01:44:36;;;;;;;39.73;19.13;;;;;1.20;100685.00;;;;10470099;28;20204;-80
2021/12/03 01:49:38;;;;;;;44.77;21.33;;;;;1.20;100680.00;;;;10472145;28;20216;-81
2021/12/03 01:54:40;;;;;;;40.23;20.50;;;;;1.20;100677.00;;;;10470210;28;20204;-80
2021/12/03 01:59:42;;;;;;;36.47;20.20;;;;;1.10;100669.00;;;;10484294;28;20197;-80
2021/12/03 02:04:45;;;;;;;43.77;18.87;;;;;1.10;100677.00;;;;10458124;28;20193;-81
2021/12/03 02:09:46;;;;;;;41.03;18.63;;;;;1.10;100687.00;;;;10453822;28;20270;-81
2021/12/03 02:14:48;;;;;;;30.53;15.43;;;;;1.10;100674.00;;;;10476360;28;20198;-80
2021/12/03 02:19:50;;;;;;;37.97;18.20;;;;;1.20;100688.00;;;;10468155;28;20254;-81
2021/12/03 02:24:52;;;;;;;33.10;16.70;;;;;1.30;100702.00;;;;10468987;28;20285;-80
2021/12/03 02:29:54;;;;;;;41.87;16.60;;;;;1.40;100675.00;;;;10479628;28;20212;-80
2021/12/03 02:34:56;;;;;;;36.37;16.13;;;;;1.50;100662.00;;;;10492055;28;20224;-81
2021/12/03 02:39:58;;;;;;;40.93;16.03;;;;;1.50;100681.00;;;;10484013;28;20255;-81
2021/12/03 02:45:00;;;;;;;33.73;15.93;;;;;1.50;100669.00;;;;10476698;28;20197;-80
2021/12/03 02:50:04;;;;;;;44.27;14.40;;;;;1.50;100687.00;;;;10510308;28;20216;-80
2021/12/03 02:55:06;;;;;;;29.43;13.33;;;;;1.60;100692.00;;;;10492041;28;20188;-80
2021/12/03 03:00:11;;;;;;;38.60;13.20;;;;;1.60;100693.00;;;;10507855;28;20196;-80
2021/12/03 03:05:16;;;;;;;32.83;13.10;;;;;1.60;100713.00;;;;10475970;28;20205;-80
2021/12/03 03:10:24;;;;;;;35.50;12.73;;;;;1.60;100692.00;;;;10514556;28;20292;-80
2021/12/03 03:15:26;;;;;;;30.63;11.30;;;;;1.70;100697.00;;;;10536442;28;20602;-81
2021/12/03 03:20:28;;;;;;;45.87;12.63;;;;;1.70;100688.00;;;;10474729;28;20205;-80
2021/12/03 03:25:30;;;;;;;44.43;11.57;;;;;1.70;100691.00;;;;10474366;28;20851;-80
2021/12/03 03:30:32;;;;;;;41.17;12.83;;;;;1.70;100678.00;;;;10447027;28;20217;-80
2021/12/03 03:35:34;;;;;;;39.97;11.73;;;;;1.60;100675.00;;;;10480971;28;20216;-80
2021/12/03 03:40:38;;;;;;;36.53;11.60;;;;;1.50;100682.00;;;;10533846;27;20615;-80
2021/12/03 03:45:40;;;;;;;34.43;11.90;;;;;1.40;100693.00;;;;10516950;27;20577;-80
2021/12/03 03:50:42;;;;;;;36.43;9.60;;;;;1.30;100667.00;;;;10513114;28;20220;-80
2021/12/03 03:55:45;;;;;;;30.17;10.40;;;;;1.30;100658.00;;;;10490361;28;20224;-80
2021/12/03 04:00:47;;;;;;;32.07;9.30;;;;;1.20;100658.00;;;;10474745;28;20235;-80
2021/12/03 04:05:50;;;;;;;29.43;8.93;;;;;1.10;100664.00;;;;10490531;28;20215;-80
2021/12/03 04:10:56;;;;;;;41.07;8.23;;;;;1.10;100665.00;;;;10491595;28;20214;-80
2021/12/03 04:15:58;;;;;;;33.80;7.37;;;;;1.10;100655.00;;;;10523361;28;20205;-81
2021/12/03 04:21:01;;;;;;;27.33;7.67;;;;;1.00;100648.00;;;;10506573;28;20201;-80
2021/12/03 04:26:02;;;;;;;25.23;7.70;;;;;0.90;100636.00;;;;10474364;28;20255;-80
2021/12/03 04:31:04;;;;;;;29.10;7.63;;;;;0.90;100646.00;;;;10512883;28;20196;-80
2021/12/03 04:36:08;;;;;;;27.87;7.47;;;;;0.90;100639.00;;;;10519409;28;20470;-81
2021/12/03 04:41:10;;;;;;;29.63;9.37;;;;;0.80;100634.00;;;;10523704;27;20320;-80
2021/12/03 04:46:12;;;;;;;39.50;8.90;;;;;0.80;100630.00;;;;10503812;28;20660;-80
2021/12/03 04:51:15;;;;;;;22.23;8.47;;;;;0.70;100623.00;;;;10490708;28;20203;-80
2021/12/03 04:56:17;;;;;;;23.57;7.77;;;;;0.80;100622.00;;;;10483689;28;20240;-80
2021/12/03 05:01:19;;;;;;;25.37;6.63;;;;;0.90;100638.00;;;;10480864;28;20202;-80
2021/12/03 05:06:31;;;;;;;27.77;6.83;;;;;1.00;100634.00;;;;10481057;28;20271;-80
2021/12/03 05:11:33;;;;;;;48.43;9.30;;;;;1.10;100647.00;;;;10542707;28;20617;-80
2021/12/03 05:16:35;;;;;;;19.37;7.13;;;;;1.20;100634.00;;;;10531166;28;20252;-80
2021/12/03 05:21:36;;;;;;;34.40;8.27;;;;;1.30;100637.00;;;;10496997;28;20205;-80
2021/12/03 05:26:39;;;;;;;35.97;8.50;;;;;1.30;100642.00;;;;10487233;28;20657;-79
2021/12/03 05:31:41;;;;;;;24.33;6.17;;;;;1.30;100628.00;;;;10504447;28;20213;-80
2021/12/03 05:37:01;;;;;;;29.10;7.67;;;;;1.30;100626.00;;;;10496939;28;20210;-79
2021/12/03 05:42:04;;;;;;;27.00;5.80;;;;;1.40;100627.00;;;;10545047;28;20261;-79
2021/12/03 05:47:06;;;;;;;26.27;6.83;;;;;1.40;100619.00;;;;10508068;28;20676;-80
2021/12/03 05:52:08;;;;;;;28.40;6.87;;;;;1.50;100631.00;;;;10519934;28;20189;-79
2021/12/03 05:57:10;;;;;;;20.83;6.63;;;;;1.50;100624.00;;;;10486586;28;20201;-79
2021/12/03 06:02:12;;;;;;;28.67;8.50;;;;;1.50;100617.00;;;;10502858;28;20323;-79
2021/12/03 06:07:14;;;;;;;20.47;7.80;;;;;1.50;100631.00;;;;10501397;28;20213;-79
2021/12/03 06:12:16;;;;;;;28.93;8.13;;;;;1.50;100626.00;;;;10469789;28;20204;-79
2021/12/03 06:17:18;;;;;;;20.40;6.40;;;;;1.50;100620.00;;;;10471043;28;20696;-80
2021/12/03 06:22:20;;;;;;;18.90;6.30;;;;;1.60;100617.00;;;;10488579;28;20193;-79
2021/12/03 06:27:24;;;;;;;28.23;6.63;;;;;1.60;100610.00;;;;10503037;28;20259;-79
2021/12/03 06:32:26;;;;;;;16.87;5.23;;;;;1.70;100607.00;;;;10485845;28;20410;-79
2021/12/03 06:37:29;;;;;;;31.40;6.30;;;;;1.80;100620.00;;;;10446928;28;20204;-79
2021/12/03 06:42:31;;;;;;;32.77;7.60;;;;;1.80;100609.00;;;;10485443;28;20197;-79
2021/12/03 06:47:35;;;;;;;21.97;5.57;;;;;1.90;100611.00;;;;10469025;28;20216;-79
2021/12/03 06:52:39;;;;;;;25.00;7.53;;;;;2.00;100610.00;;;;10501795;28;20204;-79
2021/12/03 06:57:44;;;;;;;28.90;6.13;;;;;2.10;100614.00;;;;10483667;28;20672;-79
2021/12/03 07:02:46;;;;;;;27.13;6.13;;;;;2.10;100611.00;;;;10516080;28;20208;-79
2021/12/03 07:07:50;;;;;;;20.83;5.70;;;;;2.20;100616.00;;;;10465357;28;20254;-78
2021/12/03 07:12:52;;;;;;;25.50;6.03;;;;;2.20;100616.00;;;;10478395;28;20201;-79
2021/12/03 07:17:54;;;;;;;27.50;5.47;;;;;2.30;100612.00;;;;10484893;28;20193;-78
2021/12/03 07:22:57;;;;;;;24.97;5.27;;;;;2.30;100594.00;;;;10489267;28;20199;-79
2021/12/03 07:27:59;;;;;;;18.20;4.93;;;;;2.40;100593.00;;;;10520824;28;20216;-79
2021/12/03 07:33:02;;;;;;;17.07;4.50;;;;;2.40;100596.00;;;;10479850;28;20295;-79
2021/12/03 07:38:03;;;;;;;14.60;4.70;;;;;2.50;100589.00;;;;10510462;28;20200;-79
2021/12/03 07:43:09;;;;;;;14.00;5.30;;;;;2.50;100578.00;;;;10503620;28;20196;-79
2021/12/03 07:48:13;;;;;;;15.27;4.53;;;;;2.50;100574.00;;;;10458422;28;20217;-78
2021/12/03 07:53:17;;;;;;;12.53;4.17;;;;;2.50;100583.00;;;;10465080;28;20198;-79
2021/12/03 07:58:19;;;;;;;17.30;4.87;;;;;2.60;100573.00;;;;10497496;28;20688;-79
2021/12/03 08:03:22;;;;;;;15.07;5.53;;;;;2.60;100575.00;;;;10512502;27;20249;-79
2021/12/03 08:08:26;;;;;;;13.87;4.93;;;;;2.60;100572.00;;;;10470872;28;20813;-78
2021/12/03 08:13:29;;;;;;;16.50;6.27;;;;;2.60;100571.00;;;;10489634;28;20243;-78
2021/12/03 08:18:31;;;;;;;16.97;6.50;;;;;2.60;100568.00;;;;10504002;28;20204;-79
2021/12/03 08:23:33;;;;;;;18.50;6.43;;;;;2.70;100561.00;;;;10522817;28;20197;-78
2021/12/03 08:28:35;;;;;;;18.17;6.70;;;;;2.80;100555.00;;;;10515716;27;20220;-78
2021/12/03 08:33:38;;;;;;;18.33;6.17;;;;;2.80;100564.00;;;;10496113;28;20695;-78
2021/12/03 08:38:40;;;;;;;16.43;4.40;;;;;2.90;100556.00;;;;10521143;28;20234;-78
2021/12/03 08:43:44;;;;;;;17.53;6.33;;;;;3.00;100559.00;;;;10488865;27;20231;-78
2021/12/03 08:48:48;;;;;;;14.37;6.57;;;;;3.20;100547.00;;;;10532005;27;20259;-78
2021/12/03 08:59:14;;;;;;;16.53;5.40;;;;;3.60;100535.00;;;;10558846;27;20227;-79
2021/12/03 09:04:16;;;;;;;14.27;5.83;;;;;3.50;100547.00;;;;10543160;28;20197;-78
2021/12/03 09:09:19;;;;;;;12.67;6.17;;;;;3.80;100535.00;;;;10500151;28;20750;-78
2021/12/03 09:19:35;;;;;;;17.27;6.27;;;;;4.30;100534.00;;;;10469673;28;20201;-79
2021/12/03 09:24:38;;;;;;;15.23;6.63;;;;;4.30;100525.00;;;;10462442;28;20201;-79
2021/12/03 09:29:42;;;;;;;16.60;5.47;;;;;4.30;100517.00;;;;10486781;28;20228;-79
2021/12/03 09:34:44;;;;;;;13.13;5.67;;;;;4.40;100515.00;;;;10485315;28;20678;-78
2021/12/03 09:39:46;;;;;;;17.87;5.73;;;;;4.40;100516.00;;;;10501835;28;20201;-78
2021/12/03 09:44:52;;;;;;;15.10;6.47;;;;;4.30;100508.00;;;;10499928;28;20189;-79
2021/12/03 09:49:56;;;;;;;12.43;6.40;;;;;4.40;100497.00;;;;10477221;28;20688;-79
2021/12/03 09:55:16;;;;;;;12.13;6.40;;;;;4.40;100495.00;;;;10469746;28;20190;-79
2021/12/03 10:21:59;;;;;;;17.07;5.40;;;;;5.10;100485.00;;;;10502980;28;20195;-78
2021/12/03 10:48:45;;;;;;;11.03;4.40;;;;;5.30;100429.00;;;;10496380;28;20212;-78
2021/12/03 13:03:25;;;;;;;5.67;3.23;;;;;5.50;100163.00;;;;10509248;28;20245;-78
2021/12/03 13:23:57;;;;;;;6.03;2.73;;;;;6.00;100142.00;;;;10481081;28;20196;-79
2021/12/03 14:44:14;;;;;;;3.40;2.13;;;;;4.40;100044.00;;;;10517881;28;20206;-78
2021/12/03 14:59:29;;;;;;;2.53;1.90;;;;;4.30;100002.00;;;;10497866;28;20262;-78
2021/12/03 15:04:50;;;;;;;2.27;1.53;;;;;4.20;100019.00;;;;10467996;28;20255;-78
2021/12/03 15:09:53;;;;;;;4.23;1.80;;;;;4.20;100016.00;;;;10483825;28;20251;-78
2021/12/03 15:56:58;;;;;;;1.70;1.40;;;;;4.00;99946.00;;;;10551215;27;20188;-78
2021/12/03 16:13:20;;;;;;;2.70;1.60;;;;;4.00;99933.00;;;;10549400;27;20220;-79
2021/12/03 16:45:20;;;;;;;1.90;1.70;;;;;3.90;99904.00;;;;10548143;27;20217;-78
2021/12/03 16:55:05;;;;;;;1.63;1.30;;;;;3.90;99901.00;;;;10549091;27;20609;-78
2021/12/03 17:00:20;;;;;;;1.97;1.77;;;;;3.80;99891.00;;;;10521705;27;20856;-78
2021/12/03 17:10:56;;;;;;;1.30;1.20;;;;;3.80;99869.00;;;;10546841;27;20228;-78
2021/12/03 17:21:46;;;;;;;2.50;1.50;;;;;3.90;99845.00;;;;10446203;28;20205;-78
2021/12/03 17:48:24;;;;;;;3.17;1.67;;;;;4.10;99834.00;;;;10485959;28;20196;-78
2021/12/03 17:58:32;;;;;;;2.43;2.00;;;;;4.20;99826.00;;;;10503155;28;20196;-78
2021/12/03 18:03:48;;;;;;;1.90;1.50;;;;;4.20;99824.00;;;;10486037;28;20193;-77
2021/12/03 18:14:29;;;;;;;1.77;1.67;;;;;4.20;99807.00;;;;10509196;28;20205;-78
2021/12/03 18:56:48;;;;;;;1.57;1.47;;;;;4.00;99784.00;;;;10476674;28;20200;-78
2021/12/03 19:01:50;;;;;;;1.53;1.43;;;;;4.10;99766.00;;;;10446943;28;20202;-77
2021/12/03 19:07:04;;;;;;;1.60;1.50;;;;;4.10;99772.00;;;;10444675;28;20259;-79
2021/12/03 19:12:13;;;;;;;1.33;1.10;;;;;4.10;99755.00;;;;10485191;28;20282;-78
2021/12/03 19:17:15;;;;;;;3.73;1.70;;;;;4.10;99744.00;;;;10510744;28;20196;-78
2021/12/03 19:22:17;;;;;;;2.50;2.10;;;;;4.10;99745.00;;;;10494693;28;20205;-79
2021/12/03 19:27:24;;;;;;;1.90;1.60;;;;;4.10;99734.00;;;;10509978;28;20227;-79
2021/12/03 19:32:28;;;;;;;2.50;1.57;;;;;4.20;99736.00;;;;10478881;28;20278;-79
2021/12/03 19:37:30;;;;;;;2.07;1.80;;;;;4.20;99739.00;;;;10467868;28;20204;-79
2021/12/03 19:42:58;;;;;;;2.00;1.80;;;;;4.20;99731.00;;;;10525294;28;20197;-78
2021/12/03 19:48:03;;;;;;;4.73;2.00;;;;;4.30;99739.00;;;;10533685;27;20247;-79
2021/12/03 19:53:12;;;;;;;2.00;1.90;;;;;4.30;99742.00;;;;10470826;28;20270;-78
2021/12/03 19:58:14;;;;;;;2.70;2.27;;;;;4.30;99733.00;;;;10491943;28;20201;-78
2021/12/03 20:03:16;;;;;;;2.30;1.87;;;;;4.40;99726.00;;;;10475150;28;20197;-79
2021/12/03 20:08:21;;;;;;;3.60;2.40;;;;;4.40;99716.00;;;;10507634;28;20196;-78
2021/12/03 20:13:26;;;;;;;2.47;1.70;;;;;4.30;99722.00;;;;10474508;28;20201;-78
2021/12/03 20:39:52;;;;;;;2.37;2.17;;;;;4.30;99704.00;;;;10490426;28;20230;-78
2021/12/03 20:45:10;;;;;;;2.10;1.90;;;;;4.40;99699.00;;;;10490574;28;20230;-79
2021/12/03 21:11:36;;;;;;;4.13;2.10;;;;;4.30;99652.00;;;;10450401;28;20271;-79
2021/12/03 21:21:55;;;;;;;2.67;1.83;;;;;4.30;99666.00;;;;10462529;28;20705;-80
2021/12/03 21:27:06;;;;;;;3.40;2.37;;;;;4.30;99662.00;;;;10422199;28;20676;-80
2021/12/03 21:32:21;;;;;;;3.93;2.83;;;;;4.30;99647.00;;;;10519696;27;20224;-80
2021/12/03 21:42:46;;;;;;;3.53;2.00;;;;;4.30;99632.00;;;;10461251;28;20676;-80
2021/12/03 21:47:48;;;;;;;6.93;2.70;;;;;4.30;99633.00;;;;10461430;28;20197;-80
2021/12/03 21:52:50;;;;;;;2.50;2.23;;;;;4.30;99628.00;;;;10458168;28;20247;-79
2021/12/03 21:57:53;;;;;;;5.07;2.77;;;;;4.30;99633.00;;;;10470821;28;20204;-79
2021/12/03 22:02:55;;;;;;;3.13;2.20;;;;;4.30;99624.00;;;;10502300;28;20250;-79
2021/12/03 22:07:57;;;;;;;2.43;2.00;;;;;4.40;99618.00;;;;10486480;28;20257;-79
2021/12/03 22:12:59;;;;;;;2.00;1.80;;;;;4.40;99607.00;;;;10503148;28;20225;-79
2021/12/03 22:18:02;;;;;;;2.67;2.47;;;;;4.40;99606.00;;;;10469827;28;20243;-79
2021/12/03 22:23:04;;;;;;;5.27;2.10;;;;;4.40;99605.00;;;;10486686;28;20216;-79
2021/12/03 22:28:06;;;;;;;1.80;1.70;;;;;4.40;99592.00;;;;10485926;28;20704;-79
2021/12/03 22:33:12;;;;;;;3.33;1.90;;;;;4.40;99614.00;;;;10469418;28;20224;-79
2021/12/03 22:38:14;;;;;;;1.80;1.50;;;;;4.40;99600.00;;;;10510233;28;20197;-79
2021/12/03 22:43:17;;;;;;;1.77;1.57;;;;;4.40;99591.00;;;;10485209;28;20201;-79
2021/12/03 22:53:46;;;;;;;2.20;2.00;;;;;4.40;99569.00;;;;10491896;28;20208;-79
2021/12/03 22:59:02;;;;;;;3.00;2.17;;;;;4.40;99580.00;;;;10470823;28;20197;-79
2021/12/03 23:04:07;;;;;;;2.23;2.00;;;;;4.40;99567.00;;;;10526417;27;20250;-79
2021/12/03 23:09:09;;;;;;;3.90;2.30;;;;;4.40;99569.00;;;;10481126;27;20244;-79
2021/12/03 23:14:13;;;;;;;2.43;2.00;;;;;4.50;99546.00;;;;10468190;28;20289;-79
2021/12/03 23:19:15;;;;;;;3.57;2.17;;;;;4.50;99544.00;;;;10449932;28;20193;-79
2021/12/03 23:24:17;;;;;;;2.60;2.07;;;;;4.50;99543.00;;;;10450825;28;20198;-79
2021/12/03 23:29:19;;;;;;;2.27;1.83;;;;;4.50;99545.00;;;;10466759;28;20213;-79
2021/12/03 23:34:23;;;;;;;2.30;2.10;;;;;4.50;99544.00;;;;10466616;28;20218;-79
2021/12/03 23:39:25;;;;;;;7.40;2.10;;;;;4.50;99542.00;;;;10499855;28;20205;-79
2021/12/03 23:44:27;;;;;;;3.03;2.17;;;;;4.50;99533.00;;;;10533480;27;20196;-79
2021/12/03 23:49:29;;;;;;;2.37;2.00;;;;;4.50;99532.00;;;;10460209;28;20271;-79
2021/12/03 23:54:34;;;;;;;2.73;2.30;;;;;4.50;99519.00;;;;10463053;28;20197;-80
2021/12/03 23:59:40;;;;;;;2.53;2.10;;;;;4.50;99498.00;;;;10432552;28;20208;-79
